San Isidro, Argentina
Current Conditions -  °F | °C
As of 10:00 AM on Wednesday 26 Nov 2014 (Local Time) from SANT Reporting Station
Drizzle Drizzle  
Wind Chill: 19°   Ceiling: Unl
Heat Index: 19°   Visibility: 1.8mi
Dew Point: 18°   Wind: 3mph
Humidity: 94%   Direction: 230°SW
Pressure: 30"   Gusts: NA
Location:  28.45°S, 65.73°W
Report Text: SANT 261300Z 23003KT 3000 -DZ BR SCT009 SCT030 19/18 Q1016
Loading
Personal Weather Stations






























Interactive Weather Map New forecast layout! Learn more

10-Day Weather Forecast

Advertisements
Track Severe Weather on mobile